sensor_id;sensor_type;location;lat;lon;timestamp;P1;P2;P0
54305;PMS7003;66145;45.188;5.712;2024-02-14T00:01:54;6.00;6.00;4.33
54305;PMS7003;66145;45.188;5.712;2024-02-14T00:04:20;8.00;6.00;5.00
54305;PMS7003;66145;45.188;5.712;2024-02-14T00:06:46;7.50;6.25;4.75
54305;PMS7003;66145;45.188;5.712;2024-02-14T00:09:12;6.00;6.00;4.33
54305;PMS7003;66145;45.188;5.712;2024-02-14T00:11:37;9.33;6.00;4.00
54305;PMS7003;66145;45.188;5.712;2024-02-14T00:14:05;7.00;7.00;5.75
54305;PMS7003;66145;45.188;5.712;2024-02-14T00:16:32;5.50;5.50;4.75
54305;PMS7003;66145;45.188;5.712;2024-02-14T00:18:58;5.67;5.67;4.00
54305;PMS7003;66145;45.188;5.712;2024-02-14T00:21:23;8.00;8.00;5.67
54305;PMS7003;66145;45.188;5.712;2024-02-14T00:23:51;5.75;5.75;4.25
54305;PMS7003;66145;45.188;5.712;2024-02-14T00:26:17;8.33;5.00;3.67
54305;PMS7003;66145;45.188;5.712;2024-02-14T00:28:43;7.67;7.67;6.67
54305;PMS7003;66145;45.188;5.712;2024-02-14T00:31:08;7.00;7.00;5.00
54305;PMS7003;66145;45.188;5.712;2024-02-14T00:33:34;7.00;7.00;5.00
54305;PMS7003;66145;45.188;5.712;2024-02-14T00:35:59;6.33;6.33;5.00
54305;PMS7003;66145;45.188;5.712;2024-02-14T00:38:24;8.00;8.00;4.67
54305;PMS7003;66145;45.188;5.712;2024-02-14T00:40:50;8.00;8.00;5.00
54305;PMS7003;66145;45.188;5.712;2024-02-14T00:43:15;8.67;7.00;5.33
54305;PMS7003;66145;45.188;5.712;2024-02-14T00:45:40;9.00;7.00;5.67
54305;PMS7003;66145;45.188;5.712;2024-02-14T00:48:06;8.33;8.33;6.67
54305;PMS7003;66145;45.188;5.712;2024-02-14T00:50:32;7.00;7.00;5.00
54305;PMS7003;66145;45.188;5.712;2024-02-14T00:52:58;6.00;6.00;4.75
54305;PMS7003;66145;45.188;5.712;2024-02-14T00:55:24;7.33;7.33;6.00
54305;PMS7003;66145;45.188;5.712;2024-02-14T00:57:49;7.00;7.00;5.33
54305;PMS7003;66145;45.188;5.712;2024-02-14T01:00:14;8.00;8.00;6.33
54305;PMS7003;66145;45.188;5.712;2024-02-14T01:02:42;9.00;7.75;6.00
54305;PMS7003;66145;45.188;5.712;2024-02-14T01:05:07;8.00;6.00;5.00
54305;PMS7003;66145;45.188;5.712;2024-02-14T01:07:34;7.50;7.50;5.25
54305;PMS7003;66145;45.188;5.712;2024-02-14T01:09:59;6.00;6.00;4.00
54305;PMS7003;66145;45.188;5.712;2024-02-14T01:12:25;7.00;7.00;6.00
54305;PMS7003;66145;45.188;5.712;2024-02-14T01:14:50;5.00;5.00;4.33
54305;PMS7003;66145;45.188;5.712;2024-02-14T01:17:16;7.33;5.67;4.33
54305;PMS7003;66145;45.188;5.712;2024-02-14T01:19:41;5.00;5.00;4.00
54305;PMS7003;66145;45.188;5.712;2024-02-14T01:22:06;6.00;6.00;5.00
54305;PMS7003;66145;45.188;5.712;2024-02-14T01:24:33;7.50;6.75;4.75
54305;PMS7003;66145;45.188;5.712;2024-02-14T01:26:59;6.00;6.00;5.00
54305;PMS7003;66145;45.188;5.712;2024-02-14T01:29:24;8.00;8.00;6.33
54305;PMS7003;66145;45.188;5.712;2024-02-14T01:31:50;4.00;4.00;3.00
54305;PMS7003;66145;45.188;5.712;2024-02-14T01:34:15;8.00;8.00;5.00
54305;PMS7003;66145;45.188;5.712;2024-02-14T01:36:41;7.67;7.67;5.33
54305;PMS7003;66145;45.188;5.712;2024-02-14T01:39:06;8.67;7.00;5.00
54305;PMS7003;66145;45.188;5.712;2024-02-14T01:41:36;2.50;2.50;0.75
54305;PMS7003;66145;45.188;5.712;2024-02-14T01:44:10;6.00;6.00;5.00
54305;PMS7003;66145;45.188;5.712;2024-02-14T01:46:36;7.00;7.00;5.33
54305;PMS7003;66145;45.188;5.712;2024-02-14T01:49:01;4.33;4.33;3.00
54305;PMS7003;66145;45.188;5.712;2024-02-14T01:51:28;6.00;5.50;3.25
54305;PMS7003;66145;45.188;5.712;2024-02-14T01:53:54;7.50;7.25;5.00
54305;PMS7003;66145;45.188;5.712;2024-02-14T01:56:21;5.25;5.25;4.25
54305;PMS7003;66145;45.188;5.712;2024-02-14T01:58:46;5.00;5.00;4.00
54305;PMS7003;66145;45.188;5.712;2024-02-14T02:01:12;5.00;5.00;4.00
54305;PMS7003;66145;45.188;5.712;2024-02-14T02:03:37;3.67;3.67;3.33
54305;PMS7003;66145;45.188;5.712;2024-02-14T02:06:04;6.67;6.67;4.00
54305;PMS7003;66145;45.188;5.712;2024-02-14T02:08:31;6.75;5.50;4.00
54305;PMS7003;66145;45.188;5.712;2024-02-14T02:10:57;6.00;4.25;4.00
54305;PMS7003;66145;45.188;5.712;2024-02-14T02:13:23;5.00;5.00;3.33
54305;PMS7003;66145;45.188;5.712;2024-02-14T02:15:48;6.00;6.00;5.00
54305;PMS7003;66145;45.188;5.712;2024-02-14T02:18:13;3.00;3.00;2.67
54305;PMS7003;66145;45.188;5.712;2024-02-14T02:20:40;4.75;4.75;3.75
54305;PMS7003;66145;45.188;5.712;2024-02-14T02:23:07;5.00;5.00;4.00
54305;PMS7003;66145;45.188;5.712;2024-02-14T02:25:34;4.25;4.25;3.00
54305;PMS7003;66145;45.188;5.712;2024-02-14T02:27:59;5.67;5.67;4.67
54305;PMS7003;66145;45.188;5.712;2024-02-14T02:30:25;5.00;3.33;2.00
54305;PMS7003;66145;45.188;5.712;2024-02-14T02:32:50;5.67;4.00;3.00
54305;PMS7003;66145;45.188;5.712;2024-02-14T02:35:16;4.33;4.33;3.33
54305;PMS7003;66145;45.188;5.712;2024-02-14T02:37:44;4.50;4.50;3.25
54305;PMS7003;66145;45.188;5.712;2024-02-14T02:40:10;4.00;4.00;4.00
54305;PMS7003;66145;45.188;5.712;2024-02-14T02:42:37;3.00;3.00;2.25
54305;PMS7003;66145;45.188;5.712;2024-02-14T02:45:03;6.00;6.00;4.00
54305;PMS7003;66145;45.188;5.712;2024-02-14T02:47:30;5.25;5.25;4.00
54305;PMS7003;66145;45.188;5.712;2024-02-14T02:49:56;5.33;5.33;4.00
54305;PMS7003;66145;45.188;5.712;2024-02-14T02:52:22;3.75;3.75;2.75
54305;PMS7003;66145;45.188;5.712;2024-02-14T02:54:48;3.67;3.67;3.67
54305;PMS7003;66145;45.188;5.712;2024-02-14T02:57:13;5.00;5.00;3.33
54305;PMS7003;66145;45.188;5.712;2024-02-14T02:59:38;3.33;3.33;3.00
54305;PMS7003;66145;45.188;5.712;2024-02-14T03:02:09;4.75;4.75;4.00
54305;PMS7003;66145;45.188;5.712;2024-02-14T03:04:36;3.75;3.75;3.25
54305;PMS7003;66145;45.188;5.712;2024-02-14T03:07:02;5.00;5.00;4.00
54305;PMS7003;66145;45.188;5.712;2024-02-14T03:09:32;4.00;4.00;3.75
54305;PMS7003;66145;45.188;5.712;2024-02-14T03:11:57;4.67;4.67;4.00
54305;PMS7003;66145;45.188;5.712;2024-02-14T03:14:23;5.00;5.00;3.67
54305;PMS7003;66145;45.188;5.712;2024-02-14T03:16:48;5.00;3.67;2.67
54305;PMS7003;66145;45.188;5.712;2024-02-14T03:19:14;5.00;5.00;3.67
54305;PMS7003;66145;45.188;5.712;2024-02-14T03:21:39;5.67;5.67;4.00
54305;PMS7003;66145;45.188;5.712;2024-02-14T03:24:04;6.33;3.33;3.00
54305;PMS7003;66145;45.188;5.712;2024-02-14T03:26:33;5.00;5.00;3.67
54305;PMS7003;66145;45.188;5.712;2024-02-14T03:28:59;4.50;4.50;3.75
54305;PMS7003;66145;45.188;5.712;2024-02-14T03:31:25;4.50;4.50;4.00
54305;PMS7003;66145;45.188;5.712;2024-02-14T03:33:51;4.00;4.00;3.00
54305;PMS7003;66145;45.188;5.712;2024-02-14T03:36:16;3.00;3.00;2.33
54305;PMS7003;66145;45.188;5.712;2024-02-14T03:38:42;5.33;5.33;4.00
54305;PMS7003;66145;45.188;5.712;2024-02-14T03:41:07;5.33;5.00;3.67
54305;PMS7003;66145;45.188;5.712;2024-02-14T03:43:33;4.00;4.00;3.00
54305;PMS7003;66145;45.188;5.712;2024-02-14T03:45:58;4.33;4.33;3.33
54305;PMS7003;66145;45.188;5.712;2024-02-14T03:48:23;5.00;5.00;4.00
54305;PMS7003;66145;45.188;5.712;2024-02-14T03:50:49;4.00;4.00;3.00
54305;PMS7003;66145;45.188;5.712;2024-02-14T03:53:14;1.00;1.00;0.67
54305;PMS7003;66145;45.188;5.712;2024-02-14T03:55:40;4.00;4.00;3.00
54305;PMS7003;66145;45.188;5.712;2024-02-14T03:58:05;4.00;4.00;3.00
54305;PMS7003;66145;45.188;5.712;2024-02-14T04:00:33;4.25;4.25;2.75
54305;PMS7003;66145;45.188;5.712;2024-02-14T04:03:00;4.00;4.00;2.75
54305;PMS7003;66145;45.188;5.712;2024-02-14T04:05:27;4.50;2.75;2.50
54305;PMS7003;66145;45.188;5.712;2024-02-14T04:07:53;3.67;3.33;3.00
54305;PMS7003;66145;45.188;5.712;2024-02-14T04:10:19;3.75;3.75;3.00
54305;PMS7003;66145;45.188;5.712;2024-02-14T04:12:45;2.50;2.00;1.75
54305;PMS7003;66145;45.188;5.712;2024-02-14T04:15:11;4.00;4.00;3.00
54305;PMS7003;66145;45.188;5.712;2024-02-14T04:17:36;4.00;3.00;3.00
54305;PMS7003;66145;45.188;5.712;2024-02-14T04:20:02;0.33;0.33;0.00
54305;PMS7003;66145;45.188;5.712;2024-02-14T04:22:27;3.00;3.00;2.33
54305;PMS7003;66145;45.188;5.712;2024-02-14T04:24:52;3.00;3.00;2.33
54305;PMS7003;66145;45.188;5.712;2024-02-14T04:27:18;2.67;2.67;1.67
54305;PMS7003;66145;45.188;5.712;2024-02-14T04:29:46;2.00;2.00;2.00
54305;PMS7003;66145;45.188;5.712;2024-02-14T04:32:12;3.50;3.50;3.00
54305;PMS7003;66145;45.188;5.712;2024-02-14T04:34:38;3.00;3.00;2.67
54305;PMS7003;66145;45.188;5.712;2024-02-14T04:37:04;3.00;3.00;2.75
54305;PMS7003;66145;45.188;5.712;2024-02-14T04:39:35;2.00;2.00;1.00
54305;PMS7003;66145;45.188;5.712;2024-02-14T04:42:03;2.75;2.75;2.00
54305;PMS7003;66145;45.188;5.712;2024-02-14T04:44:29;3.75;3.75;2.00
54305;PMS7003;66145;45.188;5.712;2024-02-14T04:46:56;2.75;2.75;1.75
54305;PMS7003;66145;45.188;5.712;2024-02-14T04:49:23;3.00;3.00;2.00
54305;PMS7003;66145;45.188;5.712;2024-02-14T04:51:48;2.67;2.67;2.00
54305;PMS7003;66145;45.188;5.712;2024-02-14T04:54:13;3.33;3.33;2.00
54305;PMS7003;66145;45.188;5.712;2024-02-14T04:56:41;4.00;2.75;1.75
54305;PMS7003;66145;45.188;5.712;2024-02-14T04:59:07;5.00;4.00;2.75
54305;PMS7003;66145;45.188;5.712;2024-02-14T05:01:33;2.00;2.00;2.00
54305;PMS7003;66145;45.188;5.712;2024-02-14T05:03:59;3.00;3.00;2.00
54305;PMS7003;66145;45.188;5.712;2024-02-14T05:06:24;1.00;1.00;1.00
54305;PMS7003;66145;45.188;5.712;2024-02-14T05:08:49;3.00;3.00;3.00
54305;PMS7003;66145;45.188;5.712;2024-02-14T05:11:16;1.00;1.00;1.00
54305;PMS7003;66145;45.188;5.712;2024-02-14T05:13:42;3.00;3.00;2.00
54305;PMS7003;66145;45.188;5.712;2024-02-14T05:16:07;2.50;1.00;1.00
54305;PMS7003;66145;45.188;5.712;2024-02-14T05:18:35;1.75;1.75;1.75
54305;PMS7003;66145;45.188;5.712;2024-02-14T05:21:04;1.00;1.00;0.75
54305;PMS7003;66145;45.188;5.712;2024-02-14T05:23:30;2.25;2.25;2.00
54305;PMS7003;66145;45.188;5.712;2024-02-14T05:25:55;2.00;2.00;2.00
54305;PMS7003;66145;45.188;5.712;2024-02-14T05:28:21;3.67;2.00;1.00
54305;PMS7003;66145;45.188;5.712;2024-02-14T05:30:46;1.00;1.00;1.00
54305;PMS7003;66145;45.188;5.712;2024-02-14T05:33:11;1.00;1.00;1.00
54305;PMS7003;66145;45.188;5.712;2024-02-14T05:35:37;3.00;3.00;2.00
54305;PMS7003;66145;45.188;5.712;2024-02-14T05:38:02;2.00;2.00;1.00
54305;PMS7003;66145;45.188;5.712;2024-02-14T05:40:29;1.75;1.75;0.75
54305;PMS7003;66145;45.188;5.712;2024-02-14T05:42:54;2.00;2.00;2.00
54305;PMS7003;66145;45.188;5.712;2024-02-14T05:45:21;2.00;2.00;1.75
54305;PMS7003;66145;45.188;5.712;2024-02-14T05:47:46;4.00;3.00;2.67
54305;PMS7003;66145;45.188;5.712;2024-02-14T05:50:11;3.00;3.00;2.33
54305;PMS7003;66145;45.188;5.712;2024-02-14T05:52:38;3.50;2.00;1.00
54305;PMS7003;66145;45.188;5.712;2024-02-14T05:55:04;2.00;2.00;1.67
54305;PMS7003;66145;45.188;5.712;2024-02-14T05:57:30;4.00;4.00;3.00
54305;PMS7003;66145;45.188;5.712;2024-02-14T05:59:55;3.00;3.00;2.00
54305;PMS7003;66145;45.188;5.712;2024-02-14T06:02:20;5.00;3.33;2.00
54305;PMS7003;66145;45.188;5.712;2024-02-14T06:04:46;2.67;2.67;2.00
54305;PMS7003;66145;45.188;5.712;2024-02-14T06:07:11;2.67;2.67;2.67
54305;PMS7003;66145;45.188;5.712;2024-02-14T06:09:37;3.00;3.00;3.00
54305;PMS7003;66145;45.188;5.712;2024-02-14T06:12:03;4.00;4.00;3.00
54305;PMS7003;66145;45.188;5.712;2024-02-14T06:14:29;2.33;2.33;2.00
54305;PMS7003;66145;45.188;5.712;2024-02-14T06:16:55;2.75;2.75;2.25
54305;PMS7003;66145;45.188;5.712;2024-02-14T06:19:21;3.33;3.33;2.67
54305;PMS7003;66145;45.188;5.712;2024-02-14T06:21:47;3.67;3.67;3.00
54305;PMS7003;66145;45.188;5.712;2024-02-14T06:24:12;4.00;4.00;3.00
54305;PMS7003;66145;45.188;5.712;2024-02-14T06:26:38;3.67;3.67;3.00
54305;PMS7003;66145;45.188;5.712;2024-02-14T06:29:03;4.00;4.00;3.00
54305;PMS7003;66145;45.188;5.712;2024-02-14T06:31:29;3.33;3.33;3.33
54305;PMS7003;66145;45.188;5.712;2024-02-14T06:33:54;3.33;3.00;2.00
54305;PMS7003;66145;45.188;5.712;2024-02-14T06:36:19;4.00;4.00;3.00
54305;PMS7003;66145;45.188;5.712;2024-02-14T06:38:45;3.00;3.00;2.00
54305;PMS7003;66145;45.188;5.712;2024-02-14T06:41:11;2.67;2.67;2.33
54305;PMS7003;66145;45.188;5.712;2024-02-14T06:43:37;3.00;3.00;3.00
54305;PMS7003;66145;45.188;5.712;2024-02-14T06:46:04;1.75;1.75;1.75
54305;PMS7003;66145;45.188;5.712;2024-02-14T06:48:32;2.75;2.75;1.75
54305;PMS7003;66145;45.188;5.712;2024-02-14T06:50:58;3.00;3.00;2.75
54305;PMS7003;66145;45.188;5.712;2024-02-14T06:53:24;2.00;2.00;2.00
54305;PMS7003;66145;45.188;5.712;2024-02-14T06:55:49;3.00;3.00;2.00
54305;PMS7003;66145;45.188;5.712;2024-02-14T06:58:15;3.50;3.50;3.00
54305;PMS7003;66145;45.188;5.712;2024-02-14T07:00:40;3.00;3.00;2.00
54305;PMS7003;66145;45.188;5.712;2024-02-14T07:03:05;5.00;3.00;2.00
54305;PMS7003;66145;45.188;5.712;2024-02-14T07:05:31;3.00;3.00;2.67
54305;PMS7003;66145;45.188;5.712;2024-02-14T07:07:56;2.67;2.67;2.67
54305;PMS7003;66145;45.188;5.712;2024-02-14T07:10:22;3.00;3.00;2.00
54305;PMS7003;66145;45.188;5.712;2024-02-14T07:12:47;2.00;2.00;1.00
54305;PMS7003;66145;45.188;5.712;2024-02-14T07:15:13;3.33;3.33;2.00
54305;PMS7003;66145;45.188;5.712;2024-02-14T07:17:38;4.67;3.00;2.33
54305;PMS7003;66145;45.188;5.712;2024-02-14T07:20:04;0.00;0.00;0.00
54305;PMS7003;66145;45.188;5.712;2024-02-14T07:22:30;2.75;2.75;2.00
54305;PMS7003;66145;45.188;5.712;2024-02-14T07:24:56;2.00;2.00;1.33
54305;PMS7003;66145;45.188;5.712;2024-02-14T07:27:21;2.00;2.00;1.00
54305;PMS7003;66145;45.188;5.712;2024-02-14T07:29:48;3.25;1.75;1.75
54305;PMS7003;66145;45.188;5.712;2024-02-14T07:32:14;3.00;3.00;2.67
54305;PMS7003;66145;45.188;5.712;2024-02-14T07:34:40;0.67;0.67;0.67
54305;PMS7003;66145;45.188;5.712;2024-02-14T07:37:05;3.33;2.67;1.67
54305;PMS7003;66145;45.188;5.712;2024-02-14T07:39:30;3.00;3.00;2.00
54305;PMS7003;66145;45.188;5.712;2024-02-14T07:41:56;5.00;3.33;2.33
54305;PMS7003;66145;45.188;5.712;2024-02-14T07:44:22;3.00;3.00;2.00
54305;PMS7003;66145;45.188;5.712;2024-02-14T07:46:48;2.67;2.67;2.00
54305;PMS7003;66145;45.188;5.712;2024-02-14T07:49:14;2.50;2.50;2.00
54305;PMS7003;66145;45.188;5.712;2024-02-14T07:51:39;2.00;2.00;2.00
54305;PMS7003;66145;45.188;5.712;2024-02-14T07:54:05;4.00;3.00;2.33
54305;PMS7003;66145;45.188;5.712;2024-02-14T07:56:31;3.50;2.75;2.00
54305;PMS7003;66145;45.188;5.712;2024-02-14T07:58:57;2.00;2.00;2.00
54305;PMS7003;66145;45.188;5.712;2024-02-14T08:01:23;1.25;1.25;1.25
54305;PMS7003;66145;45.188;5.712;2024-02-14T08:03:48;2.00;2.00;2.00
54305;PMS7003;66145;45.188;5.712;2024-02-14T08:06:14;3.00;3.00;2.33
54305;PMS7003;66145;45.188;5.712;2024-02-14T08:08:39;2.33;2.33;1.67
54305;PMS7003;66145;45.188;5.712;2024-02-14T08:11:04;3.00;3.00;2.00
54305;PMS7003;66145;45.188;5.712;2024-02-14T08:13:30;2.00;2.00;2.00
54305;PMS7003;66145;45.188;5.712;2024-02-14T08:15:56;2.75;2.75;2.25
54305;PMS7003;66145;45.188;5.712;2024-02-14T08:18:23;2.75;2.75;2.50
54305;PMS7003;66145;45.188;5.712;2024-02-14T08:20:49;4.00;2.00;1.67
54305;PMS7003;66145;45.188;5.712;2024-02-14T08:23:14;2.00;2.00;1.33
54305;PMS7003;66145;45.188;5.712;2024-02-14T08:25:39;2.75;2.75;2.00
54305;PMS7003;66145;45.188;5.712;2024-02-14T08:28:06;2.75;2.75;1.75
54305;PMS7003;66145;45.188;5.712;2024-02-14T08:30:32;5.00;3.25;2.50
54305;PMS7003;66145;45.188;5.712;2024-02-14T08:32:58;4.25;4.00;3.00
54305;PMS7003;66145;45.188;5.712;2024-02-14T08:35:23;3.00;3.00;2.67
54305;PMS7003;66145;45.188;5.712;2024-02-14T08:37:48;3.67;3.67;2.67
54305;PMS7003;66145;45.188;5.712;2024-02-14T08:40:14;2.00;2.00;2.00
54305;PMS7003;66145;45.188;5.712;2024-02-14T08:42:39;2.00;2.00;1.00
54305;PMS7003;66145;45.188;5.712;2024-02-14T08:45:05;2.33;2.33;2.00
54305;PMS7003;66145;45.188;5.712;2024-02-14T08:47:30;3.00;3.00;2.00
54305;PMS7003;66145;45.188;5.712;2024-02-14T08:49:56;3.00;3.00;2.00
54305;PMS7003;66145;45.188;5.712;2024-02-14T08:52:21;3.00;3.00;2.00
54305;PMS7003;66145;45.188;5.712;2024-02-14T08:54:46;3.00;3.00;2.33
54305;PMS7003;66145;45.188;5.712;2024-02-14T08:57:12;4.00;4.00;3.00
54305;PMS7003;66145;45.188;5.712;2024-02-14T08:59:38;3.00;3.00;2.00
54305;PMS7003;66145;45.188;5.712;2024-02-14T09:02:03;2.33;2.33;2.00
54305;PMS7003;66145;45.188;5.712;2024-02-14T09:04:28;4.00;2.00;2.00
54305;PMS7003;66145;45.188;5.712;2024-02-14T09:06:54;2.00;2.00;1.67
54305;PMS7003;66145;45.188;5.712;2024-02-14T09:09:19;2.67;2.67;2.00
54305;PMS7003;66145;45.188;5.712;2024-02-14T09:11:45;1.67;1.67;1.67
54305;PMS7003;66145;45.188;5.712;2024-02-14T09:14:11;3.00;3.00;2.00
54305;PMS7003;66145;45.188;5.712;2024-02-14T09:16:37;2.00;2.00;2.00
54305;PMS7003;66145;45.188;5.712;2024-02-14T09:19:03;2.25;2.25;2.00
54305;PMS7003;66145;45.188;5.712;2024-02-14T09:21:31;1.50;1.50;1.00
54305;PMS7003;66145;45.188;5.712;2024-02-14T09:23:59;2.75;2.75;1.75
54305;PMS7003;66145;45.188;5.712;2024-02-14T09:26:24;3.67;3.67;3.00
54305;PMS7003;66145;45.188;5.712;2024-02-14T09:28:49;4.33;2.67;2.33
54305;PMS7003;66145;45.188;5.712;2024-02-14T09:31:18;4.00;3.00;2.00
54305;PMS7003;66145;45.188;5.712;2024-02-14T09:33:45;3.50;3.50;2.75
54305;PMS7003;66145;45.188;5.712;2024-02-14T09:36:12;3.50;2.00;2.00
54305;PMS7003;66145;45.188;5.712;2024-02-14T09:38:39;2.25;2.25;2.00
54305;PMS7003;66145;45.188;5.712;2024-02-14T09:41:14;1.75;1.75;1.25
54305;PMS7003;66145;45.188;5.712;2024-02-14T09:43:45;3.50;2.00;1.50
54305;PMS7003;66145;45.188;5.712;2024-02-14T09:46:14;2.33;2.33;2.00
54305;PMS7003;66145;45.188;5.712;2024-02-14T09:48:43;3.25;3.25;2.25
54305;PMS7003;66145;45.188;5.712;2024-02-14T09:51:10;2.75;2.75;2.25
54305;PMS7003;66145;45.188;5.712;2024-02-14T09:53:37;3.50;3.50;2.50
54305;PMS7003;66145;45.188;5.712;2024-02-14T09:56:05;3.00;3.00;2.75
54305;PMS7003;66145;45.188;5.712;2024-02-14T09:58:33;2.25;2.25;2.00
54305;PMS7003;66145;45.188;5.712;2024-02-14T10:00:59;2.67;2.67;2.00
54305;PMS7003;66145;45.188;5.712;2024-02-14T10:03:24;2.00;2.00;2.00
54305;PMS7003;66145;45.188;5.712;2024-02-14T10:05:50;2.75;2.75;1.75
54305;PMS7003;66145;45.188;5.712;2024-02-14T10:08:16;3.00;3.00;2.67
54305;PMS7003;66145;45.188;5.712;2024-02-14T10:10:43;4.50;3.50;2.75
54305;PMS7003;66145;45.188;5.712;2024-02-14T10:13:09;3.67;3.67;3.00
54305;PMS7003;66145;45.188;5.712;2024-02-14T10:15:35;3.00;3.00;2.33
54305;PMS7003;66145;45.188;5.712;2024-02-14T10:18:01;3.00;3.00;3.00
54305;PMS7003;66145;45.188;5.712;2024-02-14T10:20:28;3.25;3.25;3.00
54305;PMS7003;66145;45.188;5.712;2024-02-14T10:23:02;2.50;2.50;2.25
54305;PMS7003;66145;45.188;5.712;2024-02-14T10:25:28;2.50;2.50;2.25
54305;PMS7003;66145;45.188;5.712;2024-02-14T10:27:54;2.25;2.25;2.00
54305;PMS7003;66145;45.188;5.712;2024-02-14T10:30:19;2.67;2.67;2.00
54305;PMS7003;66145;45.188;5.712;2024-02-14T10:32:46;1.25;1.25;1.25
54305;PMS7003;66145;45.188;5.712;2024-02-14T10:35:15;3.00;3.00;2.75
54305;PMS7003;66145;45.188;5.712;2024-02-14T10:37:42;2.50;2.50;2.00
54305;PMS7003;66145;45.188;5.712;2024-02-14T10:40:09;3.00;3.00;3.00
54305;PMS7003;66145;45.188;5.712;2024-02-14T10:42:35;2.00;2.00;2.00
54305;PMS7003;66145;45.188;5.712;2024-02-14T10:45:03;2.25;2.25;2.00
54305;PMS7003;66145;45.188;5.712;2024-02-14T10:47:30;1.00;1.00;1.00
54305;PMS7003;66145;45.188;5.712;2024-02-14T10:49:57;3.00;3.00;2.00
54305;PMS7003;66145;45.188;5.712;2024-02-14T10:52:36;2.75;2.75;1.75
54305;PMS7003;66145;45.188;5.712;2024-02-14T10:55:05;3.00;3.00;2.00
54305;PMS7003;66145;45.188;5.712;2024-02-14T10:57:31;2.25;2.00;1.75
54305;PMS7003;66145;45.188;5.712;2024-02-14T10:59:58;1.00;1.00;1.00
54305;PMS7003;66145;45.188;5.712;2024-02-14T11:02:26;4.50;3.50;2.50
54305;PMS7003;66145;45.188;5.712;2024-02-14T11:04:55;3.00;3.00;2.50
54305;PMS7003;66145;45.188;5.712;2024-02-14T11:07:22;2.00;2.00;1.50
54305;PMS7003;66145;45.188;5.712;2024-02-14T11:10:06;3.75;3.75;3.25
54305;PMS7003;66145;45.188;5.712;2024-02-14T11:12:33;4.25;4.25;3.50
54305;PMS7003;66145;45.188;5.712;2024-02-14T11:15:01;4.00;4.00;3.50
54305;PMS7003;66145;45.188;5.712;2024-02-14T11:17:26;3.00;3.00;3.00
54305;PMS7003;66145;45.188;5.712;2024-02-14T11:19:52;3.75;3.75;2.75
54305;PMS7003;66145;45.188;5.712;2024-02-14T11:22:19;5.00;3.33;3.00
54305;PMS7003;66145;45.188;5.712;2024-02-14T11:24:45;3.50;2.75;2.50
54305;PMS7003;66145;45.188;5.712;2024-02-14T11:27:11;3.50;3.25;3.00
54305;PMS7003;66145;45.188;5.712;2024-02-14T11:29:40;3.00;3.00;3.00
54305;PMS7003;66145;45.188;5.712;2024-02-14T11:32:16;2.00;2.00;2.00
54305;PMS7003;66145;45.188;5.712;2024-02-14T11:34:43;5.50;5.00;3.00
54305;PMS7003;66145;45.188;5.712;2024-02-14T11:37:08;3.00;3.00;2.67
54305;PMS7003;66145;45.188;5.712;2024-02-14T11:39:34;2.33;2.33;2.00
54305;PMS7003;66145;45.188;5.712;2024-02-14T11:42:00;4.00;3.00;3.00
54305;PMS7003;66145;45.188;5.712;2024-02-14T11:44:29;6.00;6.00;4.00
54305;PMS7003;66145;45.188;5.712;2024-02-14T11:46:57;4.67;4.67;4.33
54305;PMS7003;66145;45.188;5.712;2024-02-14T11:49:23;6.00;6.00;5.00
54305;PMS7003;66145;45.188;5.712;2024-02-14T11:51:48;3.67;3.67;3.00
54305;PMS7003;66145;45.188;5.712;2024-02-14T11:54:14;5.00;5.00;4.00
54305;PMS7003;66145;45.188;5.712;2024-02-14T11:56:40;4.75;4.75;3.50
54305;PMS7003;66145;45.188;5.712;2024-02-14T11:59:06;4.00;4.00;4.00
54305;PMS7003;66145;45.188;5.712;2024-02-14T12:01:35;3.25;3.25;3.00
54305;PMS7003;66145;45.188;5.712;2024-02-14T12:04:02;5.00;5.00;4.00
54305;PMS7003;66145;45.188;5.712;2024-02-14T12:06:30;3.50;3.50;2.75
54305;PMS7003;66145;45.188;5.712;2024-02-14T12:08:57;4.50;4.50;2.00
54305;PMS7003;66145;45.188;5.712;2024-02-14T12:11:26;4.00;4.00;2.75
54305;PMS7003;66145;45.188;5.712;2024-02-14T12:13:52;3.25;3.25;2.25
54305;PMS7003;66145;45.188;5.712;2024-02-14T12:16:21;4.67;3.00;2.00
54305;PMS7003;66145;45.188;5.712;2024-02-14T12:18:47;4.75;3.75;2.75
54305;PMS7003;66145;45.188;5.712;2024-02-14T12:21:12;3.00;3.00;2.00
54305;PMS7003;66145;45.188;5.712;2024-02-14T12:23:38;2.00;2.00;2.00
54305;PMS7003;66145;45.188;5.712;2024-02-14T12:26:04;2.00;2.00;2.00
54305;PMS7003;66145;45.188;5.712;2024-02-14T12:28:30;3.00;2.00;1.67
54305;PMS7003;66145;45.188;5.712;2024-02-14T12:30:57;3.50;2.00;1.75
54305;PMS7003;66145;45.188;5.712;2024-02-14T12:33:26;3.75;2.00;1.75
54305;PMS7003;66145;45.188;5.712;2024-02-14T12:35:55;1.75;1.75;1.25
54305;PMS7003;66145;45.188;5.712;2024-02-14T12:38:22;3.25;3.25;2.00
54305;PMS7003;66145;45.188;5.712;2024-02-14T12:40:48;0.00;0.00;0.00
54305;PMS7003;66145;45.188;5.712;2024-02-14T12:43:14;4.67;3.00;2.33
54305;PMS7003;66145;45.188;5.712;2024-02-14T12:45:41;3.75;3.00;2.25
54305;PMS7003;66145;45.188;5.712;2024-02-14T12:48:08;8.25;6.75;4.75
54305;PMS7003;66145;45.188;5.712;2024-02-14T12:50:35;4.75;4.75;2.25
54305;PMS7003;66145;45.188;5.712;2024-02-14T12:53:02;6.00;6.00;5.00
54305;PMS7003;66145;45.188;5.712;2024-02-14T12:55:28;6.75;6.75;4.75
54305;PMS7003;66145;45.188;5.712;2024-02-14T12:57:54;9.00;7.67;5.00
54305;PMS7003;66145;45.188;5.712;2024-02-14T13:00:20;9.00;7.75;4.75
54305;PMS7003;66145;45.188;5.712;2024-02-14T13:02:47;9.25;8.75;5.00
54305;PMS7003;66145;45.188;5.712;2024-02-14T13:05:13;10.25;9.00;4.75
54305;PMS7003;66145;45.188;5.712;2024-02-14T13:07:38;8.00;8.00;5.33
54305;PMS7003;66145;45.188;5.712;2024-02-14T13:10:04;11.33;10.00;7.00
54305;PMS7003;66145;45.188;5.712;2024-02-14T13:12:30;10.67;9.00;6.33
54305;PMS7003;66145;45.188;5.712;2024-02-14T13:14:55;9.00;9.00;5.67
54305;PMS7003;66145;45.188;5.712;2024-02-14T13:17:20;11.33;10.00;6.00
54305;PMS7003;66145;45.188;5.712;2024-02-14T13:19:46;9.00;9.00;5.33
54305;PMS7003;66145;45.188;5.712;2024-02-14T13:22:14;5.00;5.00;3.75
54305;PMS7003;66145;45.188;5.712;2024-02-14T13:24:40;11.67;11.67;7.00
54305;PMS7003;66145;45.188;5.712;2024-02-14T13:27:05;10.67;8.67;6.00
54305;PMS7003;66145;45.188;5.712;2024-02-14T13:29:31;10.67;10.67;8.00
54305;PMS7003;66145;45.188;5.712;2024-02-14T13:31:56;14.67;13.33;8.00
54305;PMS7003;66145;45.188;5.712;2024-02-14T13:34:22;11.33;11.00;6.67
54305;PMS7003;66145;45.188;5.712;2024-02-14T13:36:47;12.00;12.00;9.00
54305;PMS7003;66145;45.188;5.712;2024-02-14T13:39:13;12.67;12.67;9.00
54305;PMS7003;66145;45.188;5.712;2024-02-14T13:41:39;14.33;11.33;8.33
54305;PMS7003;66145;45.188;5.712;2024-02-14T13:44:09;12.75;11.75;8.50
54305;PMS7003;66145;45.188;5.712;2024-02-14T13:46:34;12.00;12.00;9.00
54305;PMS7003;66145;45.188;5.712;2024-02-14T13:49:00;11.33;11.33;8.33
54305;PMS7003;66145;45.188;5.712;2024-02-14T13:51:26;12.00;11.33;8.00
54305;PMS7003;66145;45.188;5.712;2024-02-14T13:53:54;10.50;10.50;7.00
54305;PMS7003;66145;45.188;5.712;2024-02-14T13:56:20;11.25;11.25;8.50
54305;PMS7003;66145;45.188;5.712;2024-02-14T13:58:47;12.75;12.75;8.75
54305;PMS7003;66145;45.188;5.712;2024-02-14T14:01:14;13.25;12.25;9.00
54305;PMS7003;66145;45.188;5.712;2024-02-14T14:03:40;15.00;11.67;9.33
54305;PMS7003;66145;45.188;5.712;2024-02-14T14:06:06;14.00;14.00;10.00
54305;PMS7003;66145;45.188;5.712;2024-02-14T14:08:33;12.00;11.75;8.50
54305;PMS7003;66145;45.188;5.712;2024-02-14T14:11:01;12.75;11.00;7.50
54305;PMS7003;66145;45.188;5.712;2024-02-14T14:13:27;10.50;10.50;7.00
54305;PMS7003;66145;45.188;5.712;2024-02-14T14:15:55;11.75;11.50;7.75